sensor_id;sensor_type;location;lat;lon;timestamp;pressure;altitude;pressure_sealevel;temperature;humidity
65534;BME280;53640;55.838;37.184;2023-06-22T00:01:22;99368.63;;;15.29;31.80
65534;BME280;53640;55.838;37.184;2023-06-22T00:03:51;99367.22;;;15.27;31.80
65534;BME280;53640;55.838;37.184;2023-06-22T00:06:20;99309.97;;;14.76;31.50
65534;BME280;53640;55.838;37.184;2023-06-22T00:08:52;99414.00;;;15.35;31.67
65534;BME280;53640;55.838;37.184;2023-06-22T00:11:20;99315.13;;;14.61;31.67
65534;BME280;53640;55.838;37.184;2023-06-22T00:13:49;99332.72;;;14.70;32.46
65534;BME280;53640;55.838;37.184;2023-06-22T00:16:19;99350.75;;;14.71;32.05
65534;BME280;53640;55.838;37.184;2023-06-22T00:18:48;99410.50;;;15.06;32.42
65534;BME280;53640;55.838;37.184;2023-06-22T00:21:16;99350.41;;;14.68;32.63
65534;BME280;53640;55.838;37.184;2023-06-22T00:23:46;99414.88;;;15.07;32.65
65534;BME280;53640;55.838;37.184;2023-06-22T00:26:14;99357.59;;;14.74;32.46
65534;BME280;53640;55.838;37.184;2023-06-22T00:28:41;99340.22;;;14.63;32.57
65534;BME280;53640;55.838;37.184;2023-06-22T00:31:07;99303.53;;;14.37;32.29
65534;BME280;53640;55.838;37.184;2023-06-22T00:33:34;99286.41;;;14.25;32.77
65534;BME280;53640;55.838;37.184;2023-06-22T00:36:05;99317.31;;;14.47;32.33
65534;BME280;53640;55.838;37.184;2023-06-22T00:38:34;99309.81;;;14.37;32.51
65534;BME280;53640;55.838;37.184;2023-06-22T00:41:02;99340.53;;;14.50;32.29
65534;BME280;53640;55.838;37.184;2023-06-22T00:43:28;99412.22;;;14.96;32.70
65534;BME280;53640;55.838;37.184;2023-06-22T00:45:56;99315.81;;;14.39;32.35
65534;BME280;53640;55.838;37.184;2023-06-22T00:48:23;99312.66;;;14.31;32.68
65534;BME280;53640;55.838;37.184;2023-06-22T00:50:50;99336.84;;;14.44;33.27
65534;BME280;53640;55.838;37.184;2023-06-22T00:53:21;99326.22;;;14.42;32.65
65534;BME280;53640;55.838;37.184;2023-06-22T00:55:48;99273.09;;;14.11;32.81
65534;BME280;53640;55.838;37.184;2023-06-22T00:58:18;99302.50;;;14.26;32.51
65534;BME280;53640;55.838;37.184;2023-06-22T01:00:49;99366.44;;;14.64;32.65
65534;BME280;53640;55.838;37.184;2023-06-22T01:03:17;99359.78;;;14.60;32.59
65534;BME280;53640;55.838;37.184;2023-06-22T01:05:46;99293.66;;;14.19;32.37
65534;BME280;53640;55.838;37.184;2023-06-22T01:08:38;99284.94;;;14.05;32.65
65534;BME280;53640;55.838;37.184;2023-06-22T01:11:32;99297.78;;;13.93;32.95
65534;BME280;53640;55.838;37.184;2023-06-22T01:16:34;99325.13;;;13.86;33.20
65534;BME280;53640;55.838;37.184;2023-06-22T01:19:09;99411.59;;;14.36;33.50
65534;BME280;53640;55.838;37.184;2023-06-22T01:21:39;99359.28;;;13.94;34.07
65534;BME280;53640;55.838;37.184;2023-06-22T01:24:27;99417.34;;;14.23;33.83
65534;BME280;53640;55.838;37.184;2023-06-22T01:27:16;99416.03;;;14.14;34.14
65534;BME280;53640;55.838;37.184;2023-06-22T01:29:55;99327.63;;;13.53;34.13
65534;BME280;53640;55.838;37.184;2023-06-22T01:32:31;99341.56;;;13.56;34.41
65534;BME280;53640;55.838;37.184;2023-06-22T01:35:01;99402.25;;;13.92;34.38
65534;BME280;53640;55.838;37.184;2023-06-22T01:37:36;99409.22;;;13.88;34.42
65534;BME280;53640;55.838;37.184;2023-06-22T01:40:06;99319.38;;;13.36;34.47
65534;BME280;53640;55.838;37.184;2023-06-22T01:42:35;99271.03;;;13.03;34.35
65534;BME280;53640;55.838;37.184;2023-06-22T01:45:03;99363.78;;;13.65;34.74
65534;BME280;53640;55.838;37.184;2023-06-22T01:47:33;99381.78;;;13.66;34.48
65534;BME280;53640;55.838;37.184;2023-06-22T01:50:01;99305.91;;;13.17;34.57
65534;BME280;53640;55.838;37.184;2023-06-22T01:52:31;99342.16;;;13.35;34.30
65534;BME280;53640;55.838;37.184;2023-06-22T01:55:00;99417.88;;;13.85;34.43
65534;BME280;53640;55.838;37.184;2023-06-22T01:57:27;99377.41;;;13.65;34.95
65534;BME280;53640;55.838;37.184;2023-06-22T02:00:03;99367.34;;;13.54;34.87
65534;BME280;53640;55.838;37.184;2023-06-22T02:02:48;99390.88;;;13.60;35.27
65534;BME280;53640;55.838;37.184;2023-06-22T02:05:19;99291.13;;;13.02;35.15
65534;BME280;53640;55.838;37.184;2023-06-22T02:08:08;99334.00;;;13.23;35.01
65534;BME280;53640;55.838;37.184;2023-06-22T02:10:37;99383.31;;;13.50;35.45
65534;BME280;53640;55.838;37.184;2023-06-22T02:13:07;99401.78;;;13.60;36.16
65534;BME280;53640;55.838;37.184;2023-06-22T02:15:35;99359.91;;;13.26;36.16
65534;BME280;53640;55.838;37.184;2023-06-22T02:18:02;99320.41;;;13.00;36.62
65534;BME280;53640;55.838;37.184;2023-06-22T02:20:48;99348.78;;;13.15;36.69
65534;BME280;53640;55.838;37.184;2023-06-22T02:23:15;99317.59;;;12.94;36.65
65534;BME280;53640;55.838;37.184;2023-06-22T02:25:42;99272.38;;;12.70;36.76
65534;BME280;53640;55.838;37.184;2023-06-22T02:28:11;99388.75;;;13.38;36.77
65534;BME280;53640;55.838;37.184;2023-06-22T02:30:40;99386.16;;;13.43;36.57
65534;BME280;53640;55.838;37.184;2023-06-22T02:33:08;99287.34;;;12.79;37.36
65534;BME280;53640;55.838;37.184;2023-06-22T02:35:35;99295.00;;;12.82;37.21
65534;BME280;53640;55.838;37.184;2023-06-22T02:38:03;99374.31;;;13.38;37.41
65534;BME280;53640;55.838;37.184;2023-06-22T02:40:31;99286.72;;;12.89;37.02
65534;BME280;53640;55.838;37.184;2023-06-22T02:42:59;99284.00;;;12.77;37.69
65534;BME280;53640;55.838;37.184;2023-06-22T02:45:29;99284.72;;;12.84;37.60
65534;BME280;53640;55.838;37.184;2023-06-22T02:47:57;99273.56;;;12.74;37.44
65534;BME280;53640;55.838;37.184;2023-06-22T02:50:24;99310.97;;;13.02;37.45
65534;BME280;53640;55.838;37.184;2023-06-22T02:52:51;99371.97;;;13.41;37.93
65534;BME280;53640;55.838;37.184;2023-06-22T02:55:17;99336.38;;;13.19;37.75
65534;BME280;53640;55.838;37.184;2023-06-22T02:57:52;99284.97;;;12.94;37.54
65534;BME280;53640;55.838;37.184;2023-06-22T03:00:19;99280.00;;;13.03;37.51
65534;BME280;53640;55.838;37.184;2023-06-22T03:02:49;99246.69;;;12.84;38.02
65534;BME280;53640;55.838;37.184;2023-06-22T03:05:16;99253.78;;;12.97;38.16
65534;BME280;53640;55.838;37.184;2023-06-22T03:07:44;99310.72;;;13.39;37.80
65534;BME280;53640;55.838;37.184;2023-06-22T03:10:13;99256.38;;;13.04;37.74
65534;BME280;53640;55.838;37.184;2023-06-22T03:12:42;99352.59;;;13.73;37.47
65534;BME280;53640;55.838;37.184;2023-06-22T03:15:12;99281.78;;;13.33;37.48
65534;BME280;53640;55.838;37.184;2023-06-22T03:17:42;99252.72;;;13.22;38.02
65534;BME280;53640;55.838;37.184;2023-06-22T03:20:10;99268.28;;;13.38;37.56
65534;BME280;53640;55.838;37.184;2023-06-22T03:22:39;99263.31;;;13.35;37.98
65534;BME280;53640;55.838;37.184;2023-06-22T03:25:10;99286.94;;;13.58;37.77
65534;BME280;53640;55.838;37.184;2023-06-22T03:27:40;99304.28;;;13.68;38.26
65534;BME280;53640;55.838;37.184;2023-06-22T03:30:10;99349.44;;;14.05;38.32
65534;BME280;53640;55.838;37.184;2023-06-22T03:32:37;99295.47;;;13.73;38.55
65534;BME280;53640;55.838;37.184;2023-06-22T03:35:06;99234.25;;;13.47;38.46
65534;BME280;53640;55.838;37.184;2023-06-22T03:37:37;99331.81;;;14.07;38.62
65534;BME280;53640;55.838;37.184;2023-06-22T03:40:05;99302.97;;;13.95;38.84
65534;BME280;53640;55.838;37.184;2023-06-22T03:42:34;99286.06;;;13.92;38.94
65534;BME280;53640;55.838;37.184;2023-06-22T03:45:03;99274.03;;;13.88;38.83
65534;BME280;53640;55.838;37.184;2023-06-22T03:47:34;99315.09;;;14.15;38.66
65534;BME280;53640;55.838;37.184;2023-06-22T03:50:01;99322.28;;;14.22;39.15
65534;BME280;53640;55.838;37.184;2023-06-22T03:52:32;99308.91;;;14.20;38.52
65534;BME280;53640;55.838;37.184;2023-06-22T03:54:59;99223.06;;;13.72;38.77
65534;BME280;53640;55.838;37.184;2023-06-22T03:57:25;99341.69;;;14.54;38.48
65534;BME280;53640;55.838;37.184;2023-06-22T03:59:52;99269.16;;;14.19;38.94
65534;BME280;53640;55.838;37.184;2023-06-22T04:02:18;99312.53;;;14.54;38.84
65534;BME280;53640;55.838;37.184;2023-06-22T04:04:45;99322.44;;;14.72;38.81
65534;BME280;53640;55.838;37.184;2023-06-22T04:07:11;99232.69;;;14.20;38.44
65534;BME280;53640;55.838;37.184;2023-06-22T04:09:38;99253.19;;;14.39;38.38
65534;BME280;53640;55.838;37.184;2023-06-22T04:12:05;99319.31;;;14.97;38.71
65534;BME280;53640;55.838;37.184;2023-06-22T04:14:33;99250.22;;;14.58;38.43
65534;BME280;53640;55.838;37.184;2023-06-22T04:17:00;99319.22;;;15.09;38.56
65534;BME280;53640;55.838;37.184;2023-06-22T04:19:27;99233.75;;;14.64;38.73
65534;BME280;53640;55.838;37.184;2023-06-22T04:21:54;99226.72;;;14.69;39.13
65534;BME280;53640;55.838;37.184;2023-06-22T04:24:20;99338.28;;;15.43;38.70
65534;BME280;53640;55.838;37.184;2023-06-22T04:26:48;99218.47;;;14.80;38.96
65534;BME280;53640;55.838;37.184;2023-06-22T04:29:15;99247.69;;;15.02;38.97
65534;BME280;53640;55.838;37.184;2023-06-22T04:31:42;99244.38;;;15.17;38.92
65534;BME280;53640;55.838;37.184;2023-06-22T04:34:09;99264.88;;;15.41;38.22
65534;BME280;53640;55.838;37.184;2023-06-22T04:36:37;99328.53;;;15.85;38.06
65534;BME280;53640;55.838;37.184;2023-06-22T04:39:09;99290.94;;;15.71;38.25
65534;BME280;53640;55.838;37.184;2023-06-22T04:41:37;99295.94;;;15.79;37.68
65534;BME280;53640;55.838;37.184;2023-06-22T04:44:19;99251.22;;;15.58;37.67
65534;BME280;53640;55.838;37.184;2023-06-22T04:46:54;99327.72;;;16.07;37.70
65534;BME280;53640;55.838;37.184;2023-06-22T04:49:36;99277.44;;;15.81;37.31
65534;BME280;53640;55.838;37.184;2023-06-22T04:52:05;99316.50;;;16.08;37.72
65534;BME280;53640;55.838;37.184;2023-06-22T04:54:33;99307.50;;;16.08;37.59
65534;BME280;53640;55.838;37.184;2023-06-22T04:57:05;99321.00;;;16.20;37.42
65534;BME280;53640;55.838;37.184;2023-06-22T04:59:37;99320.00;;;16.26;37.24
65534;BME280;53640;55.838;37.184;2023-06-22T05:02:05;99233.13;;;15.74;37.47
65534;BME280;53640;55.838;37.184;2023-06-22T05:04:33;99217.84;;;15.73;37.39
65534;BME280;53640;55.838;37.184;2023-06-22T05:07:03;99283.28;;;16.17;37.20
65534;BME280;53640;55.838;37.184;2023-06-22T05:09:30;99223.47;;;15.88;37.37
65534;BME280;53640;55.838;37.184;2023-06-22T05:11:57;99224.34;;;15.94;37.30
65534;BME280;53640;55.838;37.184;2023-06-22T05:14:25;99259.59;;;16.22;37.31
65534;BME280;53640;55.838;37.184;2023-06-22T05:16:52;99280.59;;;16.44;37.26
65534;BME280;53640;55.838;37.184;2023-06-22T05:19:19;99231.91;;;16.14;37.65
65534;BME280;53640;55.838;37.184;2023-06-22T05:21:46;99290.50;;;16.50;37.37
65534;BME280;53640;55.838;37.184;2023-06-22T05:24:12;99235.63;;;16.29;37.45
65534;BME280;53640;55.838;37.184;2023-06-22T05:26:39;99232.31;;;16.27;37.04
65534;BME280;53640;55.838;37.184;2023-06-22T05:29:06;99301.91;;;16.74;37.27
65534;BME280;53640;55.838;37.184;2023-06-22T05:31:32;99211.25;;;16.23;36.89
65534;BME280;53640;55.838;37.184;2023-06-22T05:34:00;99275.63;;;16.68;36.67
65534;BME280;53640;55.838;37.184;2023-06-22T05:36:30;99290.16;;;16.73;36.58
65534;BME280;53640;55.838;37.184;2023-06-22T05:38:57;99230.59;;;16.43;36.47
65534;BME280;53640;55.838;37.184;2023-06-22T05:41:24;99313.53;;;16.91;36.50
65534;BME280;53640;55.838;37.184;2023-06-22T05:43:56;99307.84;;;16.93;36.35
65534;BME280;53640;55.838;37.184;2023-06-22T05:46:25;99276.53;;;16.78;36.33
65534;BME280;53640;55.838;37.184;2023-06-22T05:48:51;99232.94;;;16.62;36.51
65534;BME280;53640;55.838;37.184;2023-06-22T05:51:18;99240.41;;;16.71;36.53
65534;BME280;53640;55.838;37.184;2023-06-22T05:53:44;99333.34;;;17.36;36.08
65534;BME280;53640;55.838;37.184;2023-06-22T05:56:18;99328.47;;;17.43;35.88
65534;BME280;53640;55.838;37.184;2023-06-22T05:58:46;99275.81;;;17.25;36.05
65534;BME280;53640;55.838;37.184;2023-06-22T06:01:12;99243.38;;;17.07;35.28
65534;BME280;53640;55.838;37.184;2023-06-22T06:03:42;99290.22;;;17.53;35.30
65534;BME280;53640;55.838;37.184;2023-06-22T06:06:10;99314.66;;;17.75;34.74
65534;BME280;53640;55.838;37.184;2023-06-22T06:08:39;99283.13;;;17.57;35.06
65534;BME280;53640;55.838;37.184;2023-06-22T06:11:05;99297.19;;;17.81;34.29
65534;BME280;53640;55.838;37.184;2023-06-22T06:13:31;99243.69;;;17.58;33.82
65534;BME280;53640;55.838;37.184;2023-06-22T06:15:59;99277.84;;;18.03;34.14
65534;BME280;53640;55.838;37.184;2023-06-22T06:18:26;99294.09;;;18.30;33.64
65534;BME280;53640;55.838;37.184;2023-06-22T06:20:52;99289.75;;;18.44;33.67
65534;BME280;53640;55.838;37.184;2023-06-22T06:23:21;99327.38;;;18.74;32.67
65534;BME280;53640;55.838;37.184;2023-06-22T06:25:52;99315.59;;;18.89;32.93
65534;BME280;53640;55.838;37.184;2023-06-22T06:28:25;99316.38;;;19.10;32.62
65534;BME280;53640;55.838;37.184;2023-06-22T06:30:52;99301.28;;;19.18;31.88
65534;BME280;53640;55.838;37.184;2023-06-22T06:33:19;99266.72;;;19.07;31.97
65534;BME280;53640;55.838;37.184;2023-06-22T06:35:47;99286.19;;;19.26;32.29
65534;BME280;53640;55.838;37.184;2023-06-22T06:38:13;99303.47;;;19.46;32.08
65534;BME280;53640;55.838;37.184;2023-06-22T06:40:39;99303.19;;;19.53;32.13
65534;BME280;53640;55.838;37.184;2023-06-22T06:43:06;99319.88;;;19.72;31.66
65534;BME280;53640;55.838;37.184;2023-06-22T06:45:32;99287.50;;;19.59;31.47
65534;BME280;53640;55.838;37.184;2023-06-22T06:48:00;99323.91;;;19.95;31.36
65534;BME280;53640;55.838;37.184;2023-06-22T06:50:28;99322.47;;;20.08;31.09
65534;BME280;53640;55.838;37.184;2023-06-22T06:52:55;99331.78;;;20.22;31.18
65534;BME280;53640;55.838;37.184;2023-06-22T06:55:23;99291.69;;;20.16;31.22
65534;BME280;53640;55.838;37.184;2023-06-22T06:57:52;99297.69;;;20.28;30.71
65534;BME280;53640;55.838;37.184;2023-06-22T07:00:19;99311.81;;;20.56;30.70
65534;BME280;53640;55.838;37.184;2023-06-22T07:02:45;99290.38;;;20.53;30.01
65534;BME280;53640;55.838;37.184;2023-06-22T07:05:14;99311.44;;;20.73;29.88
65534;BME280;53640;55.838;37.184;2023-06-22T07:07:40;99312.22;;;20.78;29.75
65534;BME280;53640;55.838;37.184;2023-06-22T07:10:08;99276.25;;;20.64;30.00
65534;BME280;53640;55.838;37.184;2023-06-22T07:12:35;99294.84;;;20.83;29.29
65534;BME280;53640;55.838;37.184;2023-06-22T07:15:06;99307.41;;;20.94;28.78
65534;BME280;53640;55.838;37.184;2023-06-22T07:17:36;99293.38;;;20.96;28.26
65534;BME280;53640;55.838;37.184;2023-06-22T07:20:04;99282.63;;;20.99;28.46
65534;BME280;53640;55.838;37.184;2023-06-22T07:22:43;99293.00;;;21.07;28.33
65534;BME280;53640;55.838;37.184;2023-06-22T07:25:11;99275.13;;;21.05;28.31
65534;BME280;53640;55.838;37.184;2023-06-22T07:28:00;99297.25;;;21.24;28.21
65534;BME280;53640;55.838;37.184;2023-06-22T07:30:29;99278.84;;;21.19;27.93
65534;BME280;53640;55.838;37.184;2023-06-22T07:32:56;99266.53;;;21.11;28.08
65534;BME280;53640;55.838;37.184;2023-06-22T07:35:22;99299.34;;;21.32;28.29
65534;BME280;53640;55.838;37.184;2023-06-22T07:37:48;99301.28;;;21.31;28.46
65534;BME280;53640;55.838;37.184;2023-06-22T07:40:16;99268.72;;;21.14;28.54
65534;BME280;53640;55.838;37.184;2023-06-22T07:42:42;99280.72;;;21.24;28.29
65534;BME280;53640;55.838;37.184;2023-06-22T07:45:14;99262.97;;;21.11;28.24
65534;BME280;53640;55.838;37.184;2023-06-22T07:47:41;99282.91;;;21.27;28.50
65534;BME280;53640;55.838;37.184;2023-06-22T07:50:09;99286.78;;;21.26;28.99
65534;BME280;53640;55.838;37.184;2023-06-22T07:52:36;99279.66;;;21.20;29.17
65534;BME280;53640;55.838;37.184;2023-06-22T07:55:06;99232.53;;;20.97;28.64
65534;BME280;53640;55.838;37.184;2023-06-22T07:57:34;99246.22;;;21.07;28.95
65534;BME280;53640;55.838;37.184;2023-06-22T08:00:04;99193.41;;;20.71;29.07
65534;BME280;53640;55.838;37.184;2023-06-22T08:02:40;99237.16;;;21.02;28.73
65534;BME280;53640;55.838;37.184;2023-06-22T08:05:12;99260.16;;;21.16;28.82
65534;BME280;53640;55.838;37.184;2023-06-22T08:07:39;99262.25;;;21.24;28.61
65534;BME280;53640;55.838;37.184;2023-06-22T08:10:11;99249.88;;;21.27;28.64
65534;BME280;53640;55.838;37.184;2023-06-22T08:12:39;99279.09;;;21.52;28.37
65534;BME280;53640;55.838;37.184;2023-06-22T08:15:06;99280.78;;;21.72;28.17
65534;BME280;53640;55.838;37.184;2023-06-22T08:17:33;99262.91;;;21.69;28.02
65534;BME280;53640;55.838;37.184;2023-06-22T08:20:00;99275.59;;;21.89;28.17
65534;BME280;53640;55.838;37.184;2023-06-22T08:22:29;99258.31;;;21.83;28.19
65534;BME280;53640;55.838;37.184;2023-06-22T08:24:57;99242.38;;;21.80;28.19
65534;BME280;53640;55.838;37.184;2023-06-22T08:27:23;99284.09;;;22.17;28.03
65534;BME280;53640;55.838;37.184;2023-06-22T08:29:53;99260.91;;;22.36;27.88
65534;BME280;53640;55.838;37.184;2023-06-22T08:32:25;99272.81;;;22.70;27.47
65534;BME280;53640;55.838;37.184;2023-06-22T08:34:56;99198.72;;;22.44;27.21
65534;BME280;53640;55.838;37.184;2023-06-22T08:37:23;99249.97;;;23.16;26.60
65534;BME280;53640;55.838;37.184;2023-06-22T08:40:00;99216.00;;;23.15;25.88
65534;BME280;53640;55.838;37.184;2023-06-22T08:42:30;99157.69;;;23.17;25.72
65534;BME280;53640;55.838;37.184;2023-06-22T08:44:57;99237.22;;;23.75;25.49
65534;BME280;53640;55.838;37.184;2023-06-22T08:47:24;99254.75;;;23.98;25.37
65534;BME280;53640;55.838;37.184;2023-06-22T08:49:51;99220.94;;;24.01;24.82
65534;BME280;53640;55.838;37.184;2023-06-22T08:52:20;99190.09;;;24.08;24.38
65534;BME280;53640;55.838;37.184;2023-06-22T08:54:47;99215.88;;;24.39;24.50
65534;BME280;53640;55.838;37.184;2023-06-22T08:57:14;99168.66;;;24.36;24.28
65534;BME280;53640;55.838;37.184;2023-06-22T08:59:42;99247.03;;;24.90;23.90
65534;BME280;53640;55.838;37.184;2023-06-22T09:02:09;99176.53;;;24.65;24.05
65534;BME280;53640;55.838;37.184;2023-06-22T09:04:35;99197.44;;;25.02;23.76
65534;BME280;53640;55.838;37.184;2023-06-22T09:07:02;99207.50;;;25.20;23.78
65534;BME280;53640;55.838;37.184;2023-06-22T09:09:29;99209.25;;;25.56;23.63
65534;BME280;53640;55.838;37.184;2023-06-22T09:11:55;99199.56;;;25.93;23.31
65534;BME280;53640;55.838;37.184;2023-06-22T09:14:22;99219.47;;;26.13;22.72
65534;BME280;53640;55.838;37.184;2023-06-22T09:16:48;99219.66;;;26.25;22.64
65534;BME280;53640;55.838;37.184;2023-06-22T09:19:14;99224.75;;;26.49;22.46
65534;BME280;53640;55.838;37.184;2023-06-22T09:21:41;99213.09;;;26.73;22.06
65534;BME280;53640;55.838;37.184;2023-06-22T09:24:07;99219.78;;;26.89;21.95
65534;BME280;53640;55.838;37.184;2023-06-22T09:26:34;99205.00;;;27.24;21.95
65534;BME280;53640;55.838;37.184;2023-06-22T09:29:04;99219.56;;;27.59;21.42
65534;BME280;53640;55.838;37.184;2023-06-22T09:31:31;99231.28;;;27.73;20.92
65534;BME280;53640;55.838;37.184;2023-06-22T09:33:58;99216.59;;;27.94;20.90
65534;BME280;53640;55.838;37.184;2023-06-22T09:36:24;99212.25;;;28.05;20.44
65534;BME280;53640;55.838;37.184;2023-06-22T09:38:50;99201.81;;;28.23;20.02
65534;BME280;53640;55.838;37.184;2023-06-22T09:41:22;99192.69;;;28.13;20.88
65534;BME280;53640;55.838;37.184;2023-06-22T09:43:48;99189.19;;;28.25;19.97
65534;BME280;53640;55.838;37.184;2023-06-22T09:46:15;99172.47;;;28.46;20.22
65534;BME280;53640;55.838;37.184;2023-06-22T09:48:42;99193.25;;;28.82;20.15
65534;BME280;53640;55.838;37.184;2023-06-22T09:51:11;99196.72;;;29.12;20.02
65534;BME280;53640;55.838;37.184;2023-06-22T09:53:40;99172.63;;;29.07;19.42
65534;BME280;53640;55.838;37.184;2023-06-22T09:56:06;99183.75;;;29.53;19.55
65534;BME280;53640;55.838;37.184;2023-06-22T09:58:32;99164.53;;;29.76;19.05
65534;BME280;53640;55.838;37.184;2023-06-22T10:00:59;99165.88;;;29.94;19.01
65534;BME280;53640;55.838;37.184;2023-06-22T10:03:25;99181.97;;;30.25;19.08
65534;BME280;53640;55.838;37.184;2023-06-22T10:05:51;99190.50;;;30.45;18.54
65534;BME280;53640;55.838;37.184;2023-06-22T10:08:18;99168.53;;;30.43;18.35
65534;BME280;53640;55.838;37.184;2023-06-22T10:10:44;99164.44;;;30.69;17.89
65534;BME280;53640;55.838;37.184;2023-06-22T10:13:11;99135.69;;;30.68;17.64
65534;BME280;53640;55.838;37.184;2023-06-22T10:15:38;99165.53;;;31.08;17.51
65534;BME280;53640;55.838;37.184;2023-06-22T10:18:04;99133.38;;;30.86;17.24
65534;BME280;53640;55.838;37.184;2023-06-22T10:20:31;99160.03;;;31.12;17.34
65534;BME280;53640;55.838;37.184;2023-06-22T10:22:58;99127.44;;;31.19;17.35
65534;BME280;53640;55.838;37.184;2023-06-22T10:25:25;99154.69;;;31.22;17.29
65534;BME280;53640;55.838;37.184;2023-06-22T10:27:51;99133.94;;;31.23;16.99
65534;BME280;53640;55.838;37.184;2023-06-22T10:30:17;99129.56;;;31.42;17.38
65534;BME280;53640;55.838;37.184;2023-06-22T10:32:43;99135.03;;;31.70;17.39
65534;BME280;53640;55.838;37.184;2023-06-22T10:35:10;99148.59;;;31.68;16.57
65534;BME280;53640;55.838;37.184;2023-06-22T10:37:39;99080.56;;;31.48;16.99
65534;BME280;53640;55.838;37.184;2023-06-22T10:40:06;99133.97;;;31.94;16.75
65534;BME280;53640;55.838;37.184;2023-06-22T10:42:34;99112.22;;;31.87;17.17
65534;BME280;53640;55.838;37.184;2023-06-22T10:45:00;99121.75;;;32.22;17.04
65534;BME280;53640;55.838;37.184;2023-06-22T10:47:29;99123.88;;;32.48;16.43
65534;BME280;53640;55.838;37.184;2023-06-22T10:49:56;99124.00;;;32.97;16.01
65534;BME280;53640;55.838;37.184;2023-06-22T10:52:23;99116.28;;;33.17;16.17
65534;BME280;53640;55.838;37.184;2023-06-22T10:54:49;99080.44;;;33.03;16.10
65534;BME280;53640;55.838;37.184;2023-06-22T10:57:15;99104.63;;;33.38;16.06
65534;BME280;53640;55.838;37.184;2023-06-22T10:59:42;99098.41;;;33.02;16.33
65534;BME280;53640;55.838;37.184;2023-06-22T11:02:08;99123.97;;;32.51;16.76
65534;BME280;53640;55.838;37.184;2023-06-22T11:04:35;99098.69;;;32.28;16.72
65534;BME280;53640;55.838;37.184;2023-06-22T11:07:01;99102.47;;;32.82;16.34
65534;BME280;53640;55.838;37.184;2023-06-22T11:09:28;99109.59;;;33.25;15.87
65534;BME280;53640;55.838;37.184;2023-06-22T11:11:55;99077.63;;;33.30;15.97
65534;BME280;53640;55.838;37.184;2023-06-22T11:14:23;99097.28;;;32.84;15.88
65534;BME280;53640;55.838;37.184;2023-06-22T11:16:51;99093.38;;;32.65;15.90
65534;BME280;53640;55.838;37.184;2023-06-22T11:19:18;99084.28;;;32.30;15.46
65534;BME280;53640;55.838;37.184;2023-06-22T11:21:44;99085.34;;;32.02;15.84
65534;BME280;53640;55.838;37.184;2023-06-22T11:24:11;99069.75;;;31.46;16.66
65534;BME280;53640;55.838;37.184;2023-06-22T11:26:37;99056.38;;;30.89;16.69
65534;BME280;53640;55.838;37.184;2023-06-22T11:29:06;99090.72;;;31.21;16.78
65534;BME280;53640;55.838;37.184;2023-06-22T11:31:35;99082.38;;;31.76;16.66
65534;BME280;53640;55.838;37.184;2023-06-22T11:34:01;99071.00;;;32.27;15.87
65534;BME280;53640;55.838;37.184;2023-06-22T11:36:29;99063.38;;;32.89;15.69
65534;BME280;53640;55.838;37.184;2023-06-22T11:38:55;99070.50;;;33.36;14.98
65534;BME280;53640;55.838;37.184;2023-06-22T11:41:22;99074.66;;;33.76;14.80
65534;BME280;53640;55.838;37.184;2023-06-22T11:43:49;99074.63;;;34.02;14.78
65534;BME280;53640;55.838;37.184;2023-06-22T11:46:18;99076.72;;;34.09;14.42
65534;BME280;53640;55.838;37.184;2023-06-22T11:48:45;99053.91;;;34.18;14.12
65534;BME280;53640;55.838;37.184;2023-06-22T11:51:13;99044.47;;;34.74;13.62
65534;BME280;53640;55.838;37.184;2023-06-22T11:53:40;99031.19;;;35.22;13.78
65534;BME280;53640;55.838;37.184;2023-06-22T11:56:06;99050.63;;;35.49;12.75
65534;BME280;53640;55.838;37.184;2023-06-22T11:58:35;99021.28;;;34.88;13.10
65534;BME280;53640;55.838;37.184;2023-06-22T12:01:02;99061.94;;;35.01;12.90
65534;BME280;53640;55.838;37.184;2023-06-22T12:03:28;99034.56;;;34.94;13.29
65534;BME280;53640;55.838;37.184;2023-06-22T12:05:56;99041.69;;;35.33;13.25
65534;BME280;53640;55.838;37.184;2023-06-22T12:08:32;99023.09;;;35.14;13.27
65534;BME280;53640;55.838;37.184;2023-06-22T12:11:02;98988.72;;;34.90;13.34
65534;BME280;53640;55.838;37.184;2023-06-22T12:13:29;98993.97;;;34.44;13.68
65534;BME280;53640;55.838;37.184;2023-06-22T12:15:56;98935.09;;;33.43;14.10
65534;BME280;53640;55.838;37.184;2023-06-22T12:18:22;98979.66;;;33.48;14.19
65534;BME280;53640;55.838;37.184;2023-06-22T12:20:49;98931.09;;;33.44;14.03
65534;BME280;53640;55.838;37.184;2023-06-22T12:23:16;98936.66;;;33.74;13.47
65534;BME280;53640;55.838;37.184;2023-06-22T12:25:44;98943.44;;;34.06;13.47
65534;BME280;53640;55.838;37.184;2023-06-22T12:28:14;98973.72;;;34.68;13.71
65534;BME280;53640;55.838;37.184;2023-06-22T12:30:40;99021.19;;;35.36;13.72
65534;BME280;53640;55.838;37.184;2023-06-22T12:33:40;99012.59;;;35.11;13.73
65534;BME280;53640;55.838;37.184;2023-06-22T12:36:06;98950.31;;;34.13;14.57
65534;BME280;53640;55.838;37.184;2023-06-22T12:38:33;98957.00;;;33.97;14.15
65534;BME280;53640;55.838;37.184;2023-06-22T12:41:00;98958.03;;;34.23;14.44
65534;BME280;53640;55.838;37.184;2023-06-22T12:43:26;98965.53;;;34.52;13.89
65534;BME280;53640;55.838;37.184;2023-06-22T12:45:53;98937.44;;;34.11;13.95
65534;BME280;53640;55.838;37.184;2023-06-22T12:48:19;98947.31;;;33.57;14.38
65534;BME280;53640;55.838;37.184;2023-06-22T12:50:52;98910.84;;;32.71;15.09
65534;BME280;53640;55.838;37.184;2023-06-22T12:53:42;98944.41;;;32.17;15.95
65534;BME280;53640;55.838;37.184;2023-06-22T12:56:16;98899.16;;;31.31;16.40
65534;BME280;53640;55.838;37.184;2023-06-22T13:02:01;98945.00;;;31.26;16.48
65534;BME280;53640;55.838;37.184;2023-06-22T13:04:31;98911.59;;;30.79;17.15